createdAt,value
2023-01-30T00:02:08.076Z,18.07
2023-01-30T00:04:34.844Z,18.93
2023-01-30T00:07:01.884Z,18.40
2023-01-30T00:09:28.662Z,17.63
2023-01-30T00:11:55.642Z,16.37
2023-01-30T00:14:22.787Z,16.83
2023-01-30T00:16:49.859Z,16.40
2023-01-30T00:19:16.585Z,16.70
2023-01-30T00:21:43.621Z,17.07
2023-01-30T00:24:10.588Z,17.97
2023-01-30T00:26:38.145Z,18.37
2023-01-30T00:29:04.986Z,18.53
2023-01-30T00:31:32.184Z,19.07
2023-01-30T00:33:59.037Z,17.33
2023-01-30T00:36:26.152Z,18.73
2023-01-30T00:38:52.872Z,18.00
2023-01-30T00:41:19.941Z,18.43
2023-01-30T00:44:05.271Z,15.93
2023-01-30T00:46:53.168Z,17.57
2023-01-30T00:49:20.626Z,17.37
2023-01-30T00:51:48.918Z,18.83
2023-01-30T00:54:16.503Z,17.90
2023-01-30T00:56:43.519Z,19.00
2023-01-30T00:59:10.322Z,16.67
2023-01-30T01:01:38.077Z,18.00
2023-01-30T01:04:06.509Z,19.10
2023-01-30T01:06:33.710Z,17.50
2023-01-30T01:09:00.572Z,17.57
2023-01-30T01:11:27.957Z,16.40
2023-01-30T01:14:00.502Z,17.00
2023-01-30T01:16:29.074Z,18.10
2023-01-30T01:18:58.927Z,16.20
2023-01-30T01:21:26.339Z,17.10
2023-01-30T01:23:55.857Z,16.23
2023-01-30T01:26:23.383Z,17.93
2023-01-30T01:28:55.036Z,19.70
2023-01-30T01:31:24.122Z,18.80
2023-01-30T01:33:51.728Z,17.43
2023-01-30T01:36:42.329Z,17.47
2023-01-30T01:39:05.695Z,17.10
2023-01-30T01:41:32.738Z,17.83
2023-01-30T01:44:02.243Z,18.63
2023-01-30T01:46:42.391Z,18.27
2023-01-30T01:49:21.494Z,18.60
2023-01-30T01:51:54.992Z,18.33
2023-01-30T01:54:52.582Z,18.13
2023-01-30T01:57:42.999Z,16.20
2023-01-30T02:00:18.305Z,15.73
2023-01-30T02:03:01.648Z,16.60
2023-01-30T02:05:34.196Z,17.37
2023-01-30T02:08:04.622Z,16.47
2023-01-30T02:10:50.817Z,17.97
2023-01-30T02:13:18.377Z,17.87
2023-01-30T02:15:45.442Z,16.27
2023-01-30T02:18:14.519Z,15.43
2023-01-30T02:21:11.819Z,17.20
2023-01-30T02:23:57.358Z,15.13
2023-01-30T02:26:53.285Z,14.67
2023-01-30T02:29:45.746Z,16.67
2023-01-30T02:32:19.755Z,16.40
2023-01-30T02:35:05.328Z,15.87
2023-01-30T02:37:38.302Z,15.97
2023-01-30T02:40:35.426Z,15.70
2023-01-30T02:43:11.229Z,16.13
2023-01-30T02:46:01.120Z,16.37
2023-01-30T02:49:14.098Z,15.87
2023-01-30T02:51:43.881Z,15.00
2023-01-30T02:54:12.786Z,15.57
2023-01-30T02:56:48.469Z,15.00
2023-01-30T02:59:21.687Z,15.20
2023-01-30T03:02:13.753Z,14.27
2023-01-30T03:05:06.900Z,16.30
2023-01-30T03:07:42.622Z,14.50
2023-01-30T03:10:31.364Z,13.90
2023-01-30T03:13:09.012Z,14.33
2023-01-30T03:15:48.217Z,14.97
2023-01-30T03:18:17.892Z,14.67
2023-01-30T03:20:44.801Z,15.23
2023-01-30T03:23:12.237Z,14.73
2023-01-30T03:25:42.129Z,12.93
2023-01-30T03:28:10.938Z,13.30
2023-01-30T03:30:38.400Z,14.47
2023-01-30T03:33:09.694Z,13.70
2023-01-30T03:35:38.744Z,13.60
2023-01-30T03:38:05.808Z,13.27
2023-01-30T03:40:32.819Z,11.70
2023-01-30T03:42:59.928Z,13.53
2023-01-30T03:45:26.786Z,13.83
2023-01-30T03:47:53.914Z,13.70
2023-01-30T03:50:20.710Z,12.27
2023-01-30T03:52:48.009Z,13.27
2023-01-30T03:55:18.650Z,12.33
2023-01-30T03:57:45.923Z,12.70
2023-01-30T04:00:13.294Z,12.20
2023-01-30T04:02:50.155Z,12.07
2023-01-30T04:05:18.809Z,13.27
2023-01-30T04:07:56.585Z,12.07
2023-01-30T04:10:24.750Z,13.87
2023-01-30T04:12:51.978Z,14.27
2023-01-30T04:15:20.008Z,13.10
2023-01-30T04:18:13.884Z,14.00
2023-01-30T04:20:53.832Z,14.10
2023-01-30T04:23:28.733Z,13.97
2023-01-30T04:25:56.849Z,12.47
2023-01-30T04:28:25.971Z,12.90
2023-01-30T04:30:54.011Z,15.13
2023-01-30T04:33:39.930Z,13.57
2023-01-30T04:36:09.584Z,13.13
2023-01-30T04:38:37.573Z,13.60
2023-01-30T04:41:05.260Z,12.97
2023-01-30T04:43:35.536Z,13.47
2023-01-30T04:46:21.095Z,13.50
2023-01-30T04:48:48.195Z,12.83
2023-01-30T04:51:15.393Z,14.07
2023-01-30T04:53:42.504Z,13.47
2023-01-30T04:56:09.489Z,12.57
2023-01-30T04:58:36.577Z,14.37
2023-01-30T05:01:17.005Z,13.50
2023-01-30T05:03:44.408Z,13.30
2023-01-30T05:06:11.161Z,12.13
2023-01-30T05:08:38.316Z,11.93
2023-01-30T05:11:06.379Z,13.70
2023-01-30T05:13:33.501Z,12.60
2023-01-30T05:16:00.327Z,13.67
2023-01-30T05:18:27.324Z,12.73
2023-01-30T05:20:54.026Z,14.53
2023-01-30T05:23:21.087Z,15.03
2023-01-30T05:25:47.772Z,13.27
2023-01-30T05:28:15.095Z,13.53
2023-01-30T05:30:41.843Z,12.90
2023-01-30T05:33:08.836Z,12.90
2023-01-30T05:35:35.677Z,13.43
2023-01-30T05:38:03.514Z,13.03
2023-01-30T05:40:30.491Z,12.47
2023-01-30T05:42:57.544Z,13.37
2023-01-30T05:45:24.320Z,13.60
2023-01-30T05:47:53.610Z,12.97
2023-01-30T05:50:21.999Z,14.73
2023-01-30T05:52:49.045Z,12.73
2023-01-30T05:55:16.217Z,12.40
2023-01-30T05:57:43.555Z,13.33
2023-01-30T06:00:11.205Z,12.97
2023-01-30T06:02:41.145Z,12.60
2023-01-30T06:05:08.584Z,12.73
2023-01-30T06:07:35.525Z,13.80
2023-01-30T06:10:02.247Z,12.70
2023-01-30T06:12:29.305Z,14.40
2023-01-30T06:14:56.025Z,11.50
2023-01-30T06:17:23.005Z,13.00
2023-01-30T06:19:49.728Z,11.57
2023-01-30T06:22:16.707Z,11.40
2023-01-30T06:24:43.600Z,12.63
2023-01-30T06:27:10.610Z,12.40
2023-01-30T06:29:37.305Z,12.33
2023-01-30T06:32:04.496Z,12.73
2023-01-30T06:34:31.294Z,11.30
2023-01-30T06:36:58.375Z,11.33
2023-01-30T06:39:25.119Z,12.53
2023-01-30T06:41:52.199Z,12.73
2023-01-30T06:44:18.963Z,11.93
2023-01-30T06:46:45.998Z,12.93
2023-01-30T06:49:12.818Z,13.00
2023-01-30T06:51:39.929Z,13.40
2023-01-30T06:54:06.611Z,11.67
2023-01-30T06:56:33.598Z,12.50
2023-01-30T06:59:00.450Z,12.90
2023-01-30T07:01:29.009Z,13.37
2023-01-30T07:03:56.086Z,13.30
2023-01-30T07:06:23.088Z,14.57
2023-01-30T07:08:49.945Z,13.80
2023-01-30T07:11:16.992Z,15.00
2023-01-30T07:13:43.693Z,15.63
2023-01-30T07:16:10.825Z,15.80
2023-01-30T07:18:37.575Z,15.00
2023-01-30T07:21:04.668Z,14.67
2023-01-30T07:23:31.631Z,16.07
2023-01-30T07:25:58.647Z,15.37
2023-01-30T07:28:25.511Z,13.83
2023-01-30T07:30:52.959Z,14.17
2023-01-30T07:33:20.729Z,14.67
2023-01-30T07:35:47.819Z,16.93
2023-01-30T07:38:14.575Z,15.83
2023-01-30T07:40:41.671Z,15.73
2023-01-30T07:43:14.767Z,16.60
2023-01-30T07:45:47.294Z,17.43
2023-01-30T07:48:17.065Z,16.67
2023-01-30T07:50:45.455Z,17.33
2023-01-30T07:53:15.836Z,17.80
2023-01-30T07:55:43.440Z,16.47
2023-01-30T07:58:15.614Z,17.10
2023-01-30T08:00:43.137Z,15.53
2023-01-30T08:03:15.064Z,17.53
2023-01-30T08:05:44.086Z,15.87
2023-01-30T08:08:10.830Z,15.80
2023-01-30T08:10:37.840Z,16.50
2023-01-30T08:13:04.703Z,17.43
2023-01-30T08:15:33.521Z,14.67
2023-01-30T08:18:00.669Z,16.13
2023-01-30T08:20:28.475Z,14.93
2023-01-30T08:22:55.554Z,13.13
2023-01-30T08:25:23.319Z,14.70
2023-01-30T08:27:50.299Z,14.03
2023-01-30T08:30:18.449Z,13.20
2023-01-30T08:32:45.508Z,15.33
2023-01-30T08:35:13.555Z,13.83
2023-01-30T08:37:41.244Z,13.43
2023-01-30T08:40:09.695Z,13.73
2023-01-30T08:42:36.545Z,13.47
2023-01-30T08:45:03.883Z,13.33
2023-01-30T08:47:31.187Z,14.80
2023-01-30T08:49:58.318Z,13.87
2023-01-30T08:52:25.098Z,13.20
2023-01-30T08:54:52.130Z,13.97
2023-01-30T08:57:19.236Z,13.90
2023-01-30T08:59:46.333Z,13.93
2023-01-30T09:02:13.706Z,13.60
2023-01-30T09:04:40.866Z,13.27
2023-01-30T09:07:07.613Z,13.30
2023-01-30T09:09:34.970Z,14.53
2023-01-30T09:12:01.784Z,12.43
2023-01-30T09:14:28.939Z,13.13
2023-01-30T09:16:55.923Z,13.33
2023-01-30T09:19:28.113Z,11.97
2023-01-30T09:21:55.968Z,12.27
2023-01-30T09:24:26.531Z,11.90
2023-01-30T09:26:58.930Z,13.73
2023-01-30T09:29:27.144Z,13.87
2023-01-30T09:31:56.508Z,11.90
2023-01-30T09:34:28.545Z,13.30
2023-01-30T09:37:04.770Z,13.50
2023-01-30T09:39:32.296Z,12.10
2023-01-30T09:42:05.261Z,11.53
2023-01-30T09:44:47.557Z,11.27
2023-01-30T09:47:22.925Z,11.00
2023-01-30T09:50:08.099Z,10.93
2023-01-30T09:52:54.261Z,11.67
2023-01-30T09:55:28.075Z,10.97
2023-01-30T09:57:57.932Z,11.17
2023-01-30T10:00:34.145Z,11.00
2023-01-30T10:03:33.860Z,11.67
2023-01-30T10:06:05.351Z,11.63
2023-01-30T10:08:50.509Z,11.50
2023-01-30T10:11:42.823Z,11.63
2023-01-30T10:14:47.346Z,11.10
2023-01-30T10:17:39.847Z,11.67
2023-01-30T10:20:26.689Z,11.40
2023-01-30T10:23:17.958Z,12.97
2023-01-30T10:25:49.672Z,12.83
2023-01-30T10:28:38.896Z,12.60
2023-01-30T10:31:12.528Z,12.77
2023-01-30T10:33:58.044Z,12.83
2023-01-30T10:36:37.008Z,13.77
2023-01-30T10:39:20.930Z,14.27
2023-01-30T10:41:56.745Z,14.40
2023-01-30T10:44:24.589Z,14.63
2023-01-30T10:47:09.632Z,14.10
2023-01-30T10:49:43.945Z,13.70
2023-01-30T10:52:10.701Z,13.80
2023-01-30T10:54:44.128Z,13.87
2023-01-30T10:57:32.856Z,14.30
2023-01-30T11:00:10.470Z,14.17
2023-01-30T11:02:50.155Z,12.80
2023-01-30T11:05:23.892Z,14.40
2023-01-30T11:07:50.737Z,13.10
2023-01-30T11:10:25.814Z,13.07
2023-01-30T11:13:00.573Z,12.40
2023-01-30T11:15:44.224Z,13.00
2023-01-30T11:18:50.632Z,11.87
2023-01-30T11:21:11.154Z,12.07
2023-01-30T11:23:44.416Z,10.77
2023-01-30T11:26:48.162Z,11.83
2023-01-30T11:29:31.148Z,11.37
2023-01-30T11:32:11.140Z,11.30
2023-01-30T11:34:38.004Z,11.13
2023-01-30T11:37:44.884Z,11.40
2023-01-30T11:40:18.361Z,12.53
2023-01-30T11:42:47.749Z,11.90
2023-01-30T11:45:18.056Z,11.57
2023-01-30T11:47:57.757Z,11.87
2023-01-30T11:50:49.842Z,11.67
2023-01-30T11:53:17.240Z,10.60
2023-01-30T11:56:00.355Z,9.77
2023-01-30T11:58:31.856Z,9.10
2023-01-30T12:00:59.885Z,9.67
2023-01-30T12:03:29.541Z,9.57
2023-01-30T12:05:58.882Z,10.57
2023-01-30T12:08:41.732Z,10.73
2023-01-30T12:11:26.562Z,10.30
2023-01-30T12:14:22.398Z,9.73
2023-01-30T12:17:33.642Z,9.70
2023-01-30T12:20:21.257Z,9.17
2023-01-30T12:22:59.125Z,9.50
2023-01-30T12:25:34.142Z,9.23
2023-01-30T12:28:09.753Z,9.50
2023-01-30T12:30:56.437Z,9.43
2023-01-30T12:33:28.565Z,9.70
2023-01-30T12:35:58.258Z,9.40
2023-01-30T12:38:56.700Z,11.60
2023-01-30T12:41:57.132Z,11.13
2023-01-30T12:45:01.106Z,9.63
2023-01-30T12:47:47.125Z,9.13
2023-01-30T12:50:34.153Z,8.87
2023-01-30T12:53:26.359Z,8.73
2023-01-30T12:56:23.617Z,8.43
2023-01-30T12:59:19.308Z,8.17
2023-01-30T13:02:02.491Z,7.23
2023-01-30T13:05:01.896Z,8.27
2023-01-30T13:07:46.256Z,6.97
2023-01-30T13:10:33.390Z,6.90
2023-01-30T13:13:21.054Z,6.17
2023-01-30T13:15:57.339Z,6.50
2023-01-30T13:18:32.670Z,6.03
2023-01-30T13:21:13.902Z,5.40
2023-01-30T13:24:05.230Z,5.10
2023-01-30T13:26:37.685Z,5.10
2023-01-30T13:29:20.572Z,5.27
2023-01-30T13:31:54.969Z,5.47
2023-01-30T13:34:24.577Z,4.53
2023-01-30T13:36:59.519Z,4.80
2023-01-30T13:39:43.615Z,5.00
2023-01-30T13:42:36.896Z,5.60
2023-01-30T13:45:05.872Z,5.80
2023-01-30T13:47:39.719Z,4.47
2023-01-30T13:50:30.780Z,4.37
2023-01-30T13:53:33.383Z,4.33
2023-01-30T13:56:40.276Z,4.67
2023-01-30T13:59:32.744Z,3.67
2023-01-30T14:01:59.431Z,4.10
2023-01-30T14:04:39.476Z,4.43
2023-01-30T14:07:12.313Z,4.10
2023-01-30T14:09:46.739Z,4.23
2023-01-30T14:12:20.123Z,4.40
2023-01-30T14:15:05.084Z,3.63
2023-01-30T14:17:31.992Z,3.83
2023-01-30T14:20:01.787Z,3.83
2023-01-30T14:22:41.034Z,4.20
2023-01-30T14:25:23.180Z,3.47
2023-01-30T14:27:53.164Z,2.80
2023-01-30T14:30:49.680Z,3.43
2023-01-30T14:33:19.411Z,2.43
2023-01-30T14:35:48.643Z,2.73
2023-01-30T14:38:20.175Z,2.30
2023-01-30T14:41:07.252Z,2.87
2023-01-30T14:43:41.941Z,2.50
2023-01-30T14:46:31.927Z,2.87
2023-01-30T14:49:13.180Z,3.40
2023-01-30T14:51:40.182Z,4.53
2023-01-30T14:54:13.706Z,4.03
2023-01-30T14:56:59.179Z,3.90
2023-01-30T14:59:52.088Z,4.27
2023-01-30T15:02:34.877Z,8.47
2023-01-30T15:05:02.207Z,4.63
2023-01-30T15:08:02.460Z,4.70
2023-01-30T15:10:52.549Z,4.57
2023-01-30T15:13:44.571Z,5.40
2023-01-30T15:16:20.340Z,4.37
2023-01-30T15:19:08.444Z,4.10
2023-01-30T15:22:07.784Z,4.40
2023-01-30T15:24:40.781Z,4.50
2023-01-30T15:27:22.828Z,4.70
2023-01-30T15:29:58.867Z,4.40
2023-01-30T15:32:27.433Z,4.70
2023-01-30T15:35:17.089Z,4.17
2023-01-30T15:37:50.680Z,3.70
2023-01-30T15:40:19.517Z,4.30
2023-01-30T15:42:48.032Z,4.03
2023-01-30T15:45:26.863Z,3.77
2023-01-30T15:48:07.667Z,3.40
2023-01-30T15:50:35.057Z,4.57
2023-01-30T15:53:02.237Z,3.27
2023-01-30T15:55:33.789Z,3.57
2023-01-30T15:58:13.726Z,3.40
2023-01-30T16:00:46.172Z,3.13
2023-01-30T16:03:18.771Z,4.00
2023-01-30T16:05:57.181Z,4.53
2023-01-30T16:08:26.844Z,5.27
2023-01-30T16:10:54.282Z,5.10
2023-01-30T16:13:23.819Z,4.93
2023-01-30T16:16:02.841Z,5.07
2023-01-30T16:18:40.963Z,3.87
2023-01-30T16:21:17.587Z,4.00
2023-01-30T16:24:08.104Z,3.57
2023-01-30T16:26:36.706Z,3.60
2023-01-30T16:29:12.961Z,3.47
2023-01-30T16:31:41.429Z,3.37
2023-01-30T16:34:29.964Z,4.10
2023-01-30T16:37:02.591Z,2.97
2023-01-30T16:39:37.774Z,3.97
2023-01-30T16:42:37.262Z,4.67
2023-01-30T16:45:21.588Z,3.30
2023-01-30T16:47:48.917Z,4.00
2023-01-30T16:50:22.439Z,6.80
2023-01-30T16:52:55.180Z,3.97
2023-01-30T16:55:26.695Z,6.07
2023-01-30T16:57:57.814Z,3.70
2023-01-30T17:00:29.638Z,4.73
2023-01-30T17:03:00.204Z,4.37
2023-01-30T17:05:39.375Z,4.53
2023-01-30T17:08:26.501Z,3.10
2023-01-30T17:10:54.952Z,2.83
2023-01-30T17:13:33.721Z,4.03
2023-01-30T17:16:23.561Z,4.83
2023-01-30T17:18:52.566Z,4.43
2023-01-30T17:21:21.644Z,3.60
2023-01-30T17:23:57.835Z,3.43
2023-01-30T17:26:24.948Z,3.57
2023-01-30T17:28:52.077Z,3.87
2023-01-30T17:31:20.912Z,4.30
2023-01-30T17:33:48.198Z,4.07
2023-01-30T17:36:28.894Z,3.90
2023-01-30T17:38:57.467Z,4.00
2023-01-30T17:41:28.581Z,4.17
2023-01-30T17:43:56.220Z,4.20
2023-01-30T17:46:31.319Z,3.77
2023-01-30T17:48:58.381Z,4.33
2023-01-30T17:51:25.086Z,4.37
2023-01-30T17:53:52.218Z,3.87
2023-01-30T17:56:32.711Z,4.20
2023-01-30T17:58:59.727Z,4.07
2023-01-30T18:01:26.642Z,4.00
2023-01-30T18:03:53.679Z,3.73
2023-01-30T18:06:20.489Z,3.90
2023-01-30T18:08:47.635Z,3.40
2023-01-30T18:11:14.950Z,3.97
2023-01-30T18:13:42.732Z,4.07
2023-01-30T18:16:17.062Z,3.03
2023-01-30T18:18:44.119Z,3.30
2023-01-30T18:21:11.163Z,2.80
2023-01-30T18:23:38.418Z,4.30
2023-01-30T18:26:05.436Z,3.23
2023-01-30T18:28:32.668Z,3.60
2023-01-30T18:30:59.624Z,3.60
2023-01-30T18:33:26.826Z,3.50
2023-01-30T18:35:53.629Z,4.40
2023-01-30T18:38:20.624Z,4.17
2023-01-30T18:40:47.361Z,3.90
2023-01-30T18:43:14.488Z,3.37
2023-01-30T18:45:41.250Z,2.93
2023-01-30T18:48:09.002Z,3.03
2023-01-30T18:50:36.345Z,3.67
2023-01-30T18:53:03.399Z,3.20
2023-01-30T18:55:30.464Z,4.20
2023-01-30T18:57:58.836Z,3.70
2023-01-30T19:00:25.891Z,2.87
2023-01-30T19:02:54.284Z,2.97
2023-01-30T19:05:21.399Z,3.23
2023-01-30T19:07:48.432Z,3.73
2023-01-30T19:10:17.713Z,3.93
2023-01-30T19:13:03.916Z,2.83
2023-01-30T19:15:30.754Z,4.13
2023-01-30T19:17:58.190Z,3.90
2023-01-30T19:20:25.844Z,4.20
2023-01-30T19:22:54.901Z,4.37
2023-01-30T19:25:22.294Z,3.87
2023-01-30T19:27:49.412Z,4.00
2023-01-30T19:30:16.555Z,4.40
2023-01-30T19:32:43.611Z,5.57
2023-01-30T19:35:10.841Z,4.40
2023-01-30T19:37:39.139Z,3.40
2023-01-30T19:40:11.126Z,4.60
2023-01-30T19:42:40.388Z,3.60
2023-01-30T19:45:11.224Z,3.40
2023-01-30T19:47:38.246Z,3.93
2023-01-30T19:50:05.578Z,2.87
2023-01-30T19:52:32.686Z,3.73
2023-01-30T19:54:59.369Z,3.60
2023-01-30T19:57:26.422Z,4.00
2023-01-30T19:59:53.165Z,3.90
2023-01-30T20:02:20.178Z,3.57
2023-01-30T20:04:47.155Z,3.73
2023-01-30T20:07:14.325Z,3.90
2023-01-30T20:09:41.081Z,4.03
2023-01-30T20:12:08.331Z,3.90
2023-01-30T20:14:35.205Z,3.63
2023-01-30T20:17:02.343Z,3.20
2023-01-30T20:19:29.136Z,3.50
2023-01-30T20:21:56.173Z,4.47
2023-01-30T20:24:22.877Z,4.73
2023-01-30T20:26:49.930Z,4.43
2023-01-30T20:29:17.880Z,4.17
2023-01-30T20:31:45.073Z,5.17
2023-01-30T20:34:14.192Z,4.03
2023-01-30T20:36:41.307Z,4.10
2023-01-30T20:39:08.582Z,4.23
2023-01-30T20:41:37.621Z,4.60
2023-01-30T20:44:06.873Z,3.90
2023-01-30T20:46:41.331Z,3.97
2023-01-30T20:49:21.630Z,4.17
2023-01-30T20:51:51.283Z,4.37
2023-01-30T20:54:20.484Z,3.87
2023-01-30T20:56:50.032Z,4.27
2023-01-30T20:59:20.123Z,4.63
2023-01-30T21:01:47.231Z,5.23
2023-01-30T21:04:16.557Z,5.73
2023-01-30T21:06:46.149Z,4.63
2023-01-30T21:09:19.348Z,5.47
2023-01-30T21:11:47.529Z,5.90
2023-01-30T21:14:16.235Z,5.23
2023-01-30T21:16:43.609Z,5.10
2023-01-30T21:19:15.095Z,4.77
2023-01-30T21:21:50.655Z,5.30
2023-01-30T21:24:20.752Z,6.17
2023-01-30T21:26:48.506Z,6.07
2023-01-30T21:29:18.164Z,5.27
2023-01-30T21:31:45.440Z,5.20
2023-01-30T21:34:13.561Z,4.97
2023-01-30T21:36:40.938Z,4.83
2023-01-30T21:39:28.256Z,4.37
2023-01-30T21:42:13.637Z,4.90
2023-01-30T21:44:40.976Z,4.67
2023-01-30T21:47:08.581Z,5.30
2023-01-30T21:49:36.745Z,4.37
2023-01-30T21:52:04.139Z,3.60
2023-01-30T21:54:30.867Z,5.63
2023-01-30T21:56:57.906Z,3.50
2023-01-30T21:59:24.701Z,4.70
2023-01-30T22:01:51.682Z,4.33
2023-01-30T22:04:19.511Z,4.73
2023-01-30T22:06:46.570Z,3.57
2023-01-30T22:09:16.031Z,3.73
2023-01-30T22:11:43.567Z,3.70
2023-01-30T22:14:13.252Z,3.87
2023-01-30T22:16:41.571Z,4.30
2023-01-30T22:19:08.836Z,5.90
2023-01-30T22:21:38.779Z,5.10
2023-01-30T22:24:08.346Z,4.33
2023-01-30T22:26:36.668Z,4.67
2023-01-30T22:29:05.124Z,4.40
2023-01-30T22:31:35.061Z,4.63
2023-01-30T22:34:03.381Z,5.97
2023-01-30T22:36:32.853Z,8.50
2023-01-30T22:38:59.791Z,12.33
2023-01-30T22:41:30.278Z,14.67
2023-01-30T22:43:59.432Z,16.00
2023-01-30T22:46:35.198Z,18.07
2023-01-30T22:49:03.782Z,12.93
2023-01-30T22:51:33.536Z,8.93
2023-01-30T22:54:03.056Z,7.67
2023-01-30T22:56:35.898Z,9.07
2023-01-30T22:59:03.129Z,9.47
2023-01-30T23:01:32.423Z,4.73
2023-01-30T23:04:01.751Z,4.63
2023-01-30T23:06:32.266Z,5.83
2023-01-30T23:09:00.432Z,3.80
2023-01-30T23:11:33.041Z,4.00
2023-01-30T23:14:07.706Z,3.03
2023-01-30T23:16:36.878Z,3.13
2023-01-30T23:19:05.136Z,2.53
2023-01-30T23:21:38.215Z,3.57
2023-01-30T23:24:11.377Z,3.27
2023-01-30T23:26:40.614Z,3.90
2023-01-30T23:29:09.866Z,3.20
2023-01-30T23:31:37.100Z,3.90
2023-01-30T23:34:06.262Z,4.50
2023-01-30T23:36:34.542Z,3.33
2023-01-30T23:39:01.487Z,3.13
2023-01-30T23:41:34.394Z,4.00
2023-01-30T23:44:01.573Z,3.23
2023-01-30T23:46:36.527Z,3.60
2023-01-30T23:49:06.268Z,4.17
2023-01-30T23:51:36.315Z,4.97
2023-01-30T23:54:03.963Z,4.40
2023-01-30T23:56:33.572Z,3.57
2023-01-30T23:59:00.261Z,4.20
